sensor_id;sensor_type;location;lat;lon;timestamp;pressure;altitude;pressure_sealevel;temperature
68743;BMP180;55725;42.758;26.702;2023-04-24T00:01:03;99190.00;;;6.80
68743;BMP180;55725;42.758;26.702;2023-04-24T00:02:44;99178.00;;;6.40
68743;BMP180;55725;42.758;26.702;2023-04-24T00:04:26;99179.00;;;6.90
68743;BMP180;55725;42.758;26.702;2023-04-24T00:06:07;99192.00;;;6.60
68743;BMP180;55725;42.758;26.702;2023-04-24T00:07:50;99178.00;;;6.60
68743;BMP180;55725;42.758;26.702;2023-04-24T00:09:34;99177.00;;;6.70
68743;BMP180;55725;42.758;26.702;2023-04-24T00:11:14;99175.00;;;7.20
68743;BMP180;55725;42.758;26.702;2023-04-24T00:12:54;99169.00;;;6.90
68743;BMP180;55725;42.758;26.702;2023-04-24T00:14:35;99181.00;;;6.30
68743;BMP180;55725;42.758;26.702;2023-04-24T00:16:15;99167.00;;;6.60
68743;BMP180;55725;42.758;26.702;2023-04-24T00:17:55;99172.00;;;6.10
68743;BMP180;55725;42.758;26.702;2023-04-24T00:19:36;99177.00;;;6.50
68743;BMP180;55725;42.758;26.702;2023-04-24T00:21:16;99168.00;;;6.10
68743;BMP180;55725;42.758;26.702;2023-04-24T00:22:57;99170.00;;;6.60
68743;BMP180;55725;42.758;26.702;2023-04-24T00:24:38;99155.00;;;6.90
68743;BMP180;55725;42.758;26.702;2023-04-24T00:26:18;99161.00;;;6.50
68743;BMP180;55725;42.758;26.702;2023-04-24T00:27:58;99170.00;;;6.80
68743;BMP180;55725;42.758;26.702;2023-04-24T00:29:38;99168.00;;;6.70
68743;BMP180;55725;42.758;26.702;2023-04-24T00:31:19;99162.00;;;6.40
68743;BMP180;55725;42.758;26.702;2023-04-24T00:32:59;99163.00;;;6.40
68743;BMP180;55725;42.758;26.702;2023-04-24T00:34:40;99167.00;;;6.70
68743;BMP180;55725;42.758;26.702;2023-04-24T00:36:20;99170.00;;;6.40
68743;BMP180;55725;42.758;26.702;2023-04-24T00:38:00;99166.00;;;6.30
68743;BMP180;55725;42.758;26.702;2023-04-24T00:39:41;99165.00;;;6.60
68743;BMP180;55725;42.758;26.702;2023-04-24T00:41:21;99169.00;;;6.40
68743;BMP180;55725;42.758;26.702;2023-04-24T00:43:01;99162.00;;;6.60
68743;BMP180;55725;42.758;26.702;2023-04-24T00:44:42;99168.00;;;6.90
68743;BMP180;55725;42.758;26.702;2023-04-24T00:46:22;99162.00;;;7.00
68743;BMP180;55725;42.758;26.702;2023-04-24T00:48:02;99166.00;;;6.60
68743;BMP180;55725;42.758;26.702;2023-04-24T00:49:43;99163.00;;;6.50
68743;BMP180;55725;42.758;26.702;2023-04-24T00:51:24;99160.00;;;6.50
68743;BMP180;55725;42.758;26.702;2023-04-24T00:53:04;99160.00;;;6.60
68743;BMP180;55725;42.758;26.702;2023-04-24T00:54:44;99159.00;;;6.10
68743;BMP180;55725;42.758;26.702;2023-04-24T00:56:25;99158.00;;;5.90
68743;BMP180;55725;42.758;26.702;2023-04-24T00:58:05;99157.00;;;6.20
68743;BMP180;55725;42.758;26.702;2023-04-24T00:59:46;99158.00;;;5.60
68743;BMP180;55725;42.758;26.702;2023-04-24T01:01:26;99155.00;;;5.70
68743;BMP180;55725;42.758;26.702;2023-04-24T01:03:06;99150.00;;;5.80
68743;BMP180;55725;42.758;26.702;2023-04-24T01:04:47;99149.00;;;5.70
68743;BMP180;55725;42.758;26.702;2023-04-24T01:06:28;99157.00;;;6.20
68743;BMP180;55725;42.758;26.702;2023-04-24T01:08:09;99151.00;;;6.00
68743;BMP180;55725;42.758;26.702;2023-04-24T01:09:50;99153.00;;;6.00
68743;BMP180;55725;42.758;26.702;2023-04-24T01:11:32;99151.00;;;5.80
68743;BMP180;55725;42.758;26.702;2023-04-24T01:13:13;99148.00;;;5.60
68743;BMP180;55725;42.758;26.702;2023-04-24T01:14:54;99143.00;;;5.60
68743;BMP180;55725;42.758;26.702;2023-04-24T01:16:34;99147.00;;;5.70
68743;BMP180;55725;42.758;26.702;2023-04-24T01:18:15;99145.00;;;5.50
68743;BMP180;55725;42.758;26.702;2023-04-24T01:19:56;99160.00;;;5.80
68743;BMP180;55725;42.758;26.702;2023-04-24T01:21:37;99148.00;;;6.10
68743;BMP180;55725;42.758;26.702;2023-04-24T01:23:18;99146.00;;;6.10
68743;BMP180;55725;42.758;26.702;2023-04-24T01:24:58;99147.00;;;6.10
68743;BMP180;55725;42.758;26.702;2023-04-24T01:26:39;99149.00;;;6.10
68743;BMP180;55725;42.758;26.702;2023-04-24T01:28:19;99145.00;;;5.90
68743;BMP180;55725;42.758;26.702;2023-04-24T01:30:00;99146.00;;;6.30
68743;BMP180;55725;42.758;26.702;2023-04-24T01:31:40;99154.00;;;6.10
68743;BMP180;55725;42.758;26.702;2023-04-24T01:33:21;99140.00;;;5.80
68743;BMP180;55725;42.758;26.702;2023-04-24T01:35:01;99128.00;;;5.80
68743;BMP180;55725;42.758;26.702;2023-04-24T01:36:42;99132.00;;;6.00
68743;BMP180;55725;42.758;26.702;2023-04-24T01:38:23;99129.00;;;5.80
68743;BMP180;55725;42.758;26.702;2023-04-24T01:40:04;99117.00;;;5.60
68743;BMP180;55725;42.758;26.702;2023-04-24T01:41:45;99136.00;;;5.80
68743;BMP180;55725;42.758;26.702;2023-04-24T01:43:25;99127.00;;;5.00
68743;BMP180;55725;42.758;26.702;2023-04-24T01:45:05;99125.00;;;5.90
68743;BMP180;55725;42.758;26.702;2023-04-24T01:46:46;99123.00;;;5.50
68743;BMP180;55725;42.758;26.702;2023-04-24T01:48:26;99133.00;;;5.40
68743;BMP180;55725;42.758;26.702;2023-04-24T01:50:07;99132.00;;;5.10
68743;BMP180;55725;42.758;26.702;2023-04-24T01:51:48;99125.00;;;4.90
68743;BMP180;55725;42.758;26.702;2023-04-24T01:53:28;99129.00;;;5.60
68743;BMP180;55725;42.758;26.702;2023-04-24T01:55:09;99121.00;;;5.30
68743;BMP180;55725;42.758;26.702;2023-04-24T01:56:49;99123.00;;;5.40
68743;BMP180;55725;42.758;26.702;2023-04-24T01:58:30;99128.00;;;5.20
68743;BMP180;55725;42.758;26.702;2023-04-24T02:00:10;99126.00;;;5.50
68743;BMP180;55725;42.758;26.702;2023-04-24T02:01:52;99122.00;;;5.30
68743;BMP180;55725;42.758;26.702;2023-04-24T02:03:32;99120.00;;;5.30
68743;BMP180;55725;42.758;26.702;2023-04-24T02:05:12;99128.00;;;5.60
68743;BMP180;55725;42.758;26.702;2023-04-24T02:06:53;99119.00;;;5.30
68743;BMP180;55725;42.758;26.702;2023-04-24T02:08:33;99121.00;;;4.70
68743;BMP180;55725;42.758;26.702;2023-04-24T02:10:13;99120.00;;;5.20
68743;BMP180;55725;42.758;26.702;2023-04-24T02:11:54;99122.00;;;5.50
68743;BMP180;55725;42.758;26.702;2023-04-24T02:13:34;99111.00;;;4.70
68743;BMP180;55725;42.758;26.702;2023-04-24T02:15:14;99121.00;;;5.10
68743;BMP180;55725;42.758;26.702;2023-04-24T02:16:55;99107.00;;;5.00
68743;BMP180;55725;42.758;26.702;2023-04-24T02:18:35;99113.00;;;4.20
68743;BMP180;55725;42.758;26.702;2023-04-24T02:20:16;99115.00;;;4.80
68743;BMP180;55725;42.758;26.702;2023-04-24T02:21:57;99112.00;;;5.20
68743;BMP180;55725;42.758;26.702;2023-04-24T02:23:38;99113.00;;;4.80
68743;BMP180;55725;42.758;26.702;2023-04-24T02:25:18;99113.00;;;5.20
68743;BMP180;55725;42.758;26.702;2023-04-24T02:26:59;99119.00;;;4.60
68743;BMP180;55725;42.758;26.702;2023-04-24T02:28:40;99119.00;;;4.50
68743;BMP180;55725;42.758;26.702;2023-04-24T02:30:20;99121.00;;;5.00
68743;BMP180;55725;42.758;26.702;2023-04-24T02:32:00;99118.00;;;4.80
68743;BMP180;55725;42.758;26.702;2023-04-24T02:33:41;99121.00;;;5.20
68743;BMP180;55725;42.758;26.702;2023-04-24T02:35:21;99125.00;;;4.80
68743;BMP180;55725;42.758;26.702;2023-04-24T02:37:02;99115.00;;;4.10
68743;BMP180;55725;42.758;26.702;2023-04-24T02:38:42;99114.00;;;3.80
68743;BMP180;55725;42.758;26.702;2023-04-24T02:40:22;99111.00;;;4.60
68743;BMP180;55725;42.758;26.702;2023-04-24T02:42:03;99111.00;;;3.80
68743;BMP180;55725;42.758;26.702;2023-04-24T02:43:43;99107.00;;;4.40
68743;BMP180;55725;42.758;26.702;2023-04-24T02:45:24;99107.00;;;4.40
68743;BMP180;55725;42.758;26.702;2023-04-24T02:47:04;99098.00;;;4.70
68743;BMP180;55725;42.758;26.702;2023-04-24T02:48:44;99110.00;;;4.30
68743;BMP180;55725;42.758;26.702;2023-04-24T02:50:25;99117.00;;;4.60
68743;BMP180;55725;42.758;26.702;2023-04-24T02:52:05;99112.00;;;4.40
68743;BMP180;55725;42.758;26.702;2023-04-24T02:53:45;99116.00;;;4.20
68743;BMP180;55725;42.758;26.702;2023-04-24T02:55:26;99111.00;;;4.50
68743;BMP180;55725;42.758;26.702;2023-04-24T02:57:06;99110.00;;;4.90
68743;BMP180;55725;42.758;26.702;2023-04-24T02:58:47;99102.00;;;4.60
68743;BMP180;55725;42.758;26.702;2023-04-24T03:00:27;99107.00;;;4.50
68743;BMP180;55725;42.758;26.702;2023-04-24T03:02:07;99107.00;;;4.30
68743;BMP180;55725;42.758;26.702;2023-04-24T03:03:48;99110.00;;;4.90
68743;BMP180;55725;42.758;26.702;2023-04-24T03:05:29;99109.00;;;4.20
68743;BMP180;55725;42.758;26.702;2023-04-24T03:07:11;99118.00;;;4.40
68743;BMP180;55725;42.758;26.702;2023-04-24T03:08:51;99110.00;;;4.00
68743;BMP180;55725;42.758;26.702;2023-04-24T03:10:31;99112.00;;;4.30
68743;BMP180;55725;42.758;26.702;2023-04-24T03:12:12;99113.00;;;4.10
68743;BMP180;55725;42.758;26.702;2023-04-24T03:13:52;99102.00;;;4.30
68743;BMP180;55725;42.758;26.702;2023-04-24T03:15:32;99106.00;;;4.00
68743;BMP180;55725;42.758;26.702;2023-04-24T03:17:13;99108.00;;;4.40
68743;BMP180;55725;42.758;26.702;2023-04-24T03:18:53;99107.00;;;3.80
68743;BMP180;55725;42.758;26.702;2023-04-24T03:20:33;99112.00;;;4.10
68743;BMP180;55725;42.758;26.702;2023-04-24T03:22:14;99118.00;;;4.00
68743;BMP180;55725;42.758;26.702;2023-04-24T03:23:54;99111.00;;;4.10
68743;BMP180;55725;42.758;26.702;2023-04-24T03:25:34;99117.00;;;4.50
68743;BMP180;55725;42.758;26.702;2023-04-24T03:27:15;99120.00;;;4.70
68743;BMP180;55725;42.758;26.702;2023-04-24T03:28:55;99120.00;;;4.60
68743;BMP180;55725;42.758;26.702;2023-04-24T03:30:36;99121.00;;;4.50
68743;BMP180;55725;42.758;26.702;2023-04-24T03:32:16;99122.00;;;4.30
68743;BMP180;55725;42.758;26.702;2023-04-24T03:33:57;99110.00;;;4.60
68743;BMP180;55725;42.758;26.702;2023-04-24T03:35:37;99127.00;;;4.40
68743;BMP180;55725;42.758;26.702;2023-04-24T03:37:17;99115.00;;;4.50
68743;BMP180;55725;42.758;26.702;2023-04-24T03:38:58;99117.00;;;4.50
68743;BMP180;55725;42.758;26.702;2023-04-24T03:40:38;99116.00;;;4.30
68743;BMP180;55725;42.758;26.702;2023-04-24T03:42:18;99111.00;;;4.20
68743;BMP180;55725;42.758;26.702;2023-04-24T03:43:59;99106.00;;;4.30
68743;BMP180;55725;42.758;26.702;2023-04-24T03:45:40;99106.00;;;4.40
68743;BMP180;55725;42.758;26.702;2023-04-24T03:47:20;99109.00;;;4.30
68743;BMP180;55725;42.758;26.702;2023-04-24T03:49:00;99111.00;;;5.00
68743;BMP180;55725;42.758;26.702;2023-04-24T03:50:41;99109.00;;;4.90
68743;BMP180;55725;42.758;26.702;2023-04-24T03:52:21;99114.00;;;4.50
68743;BMP180;55725;42.758;26.702;2023-04-24T03:54:01;99105.00;;;4.90
68743;BMP180;55725;42.758;26.702;2023-04-24T03:55:42;99113.00;;;4.60
68743;BMP180;55725;42.758;26.702;2023-04-24T03:57:22;99106.00;;;5.40
68743;BMP180;55725;42.758;26.702;2023-04-24T03:59:02;99106.00;;;4.90
68743;BMP180;55725;42.758;26.702;2023-04-24T04:00:43;99111.00;;;4.80
68743;BMP180;55725;42.758;26.702;2023-04-24T04:02:24;99105.00;;;5.00
68743;BMP180;55725;42.758;26.702;2023-04-24T04:04:05;99105.00;;;7.00
68743;BMP180;55725;42.758;26.702;2023-04-24T04:05:45;99104.00;;;7.70
68743;BMP180;55725;42.758;26.702;2023-04-24T04:07:25;99094.00;;;5.60
68743;BMP180;55725;42.758;26.702;2023-04-24T04:09:06;99104.00;;;6.00
68743;BMP180;55725;42.758;26.702;2023-04-24T04:10:47;99112.00;;;5.90
68743;BMP180;55725;42.758;26.702;2023-04-24T04:12:27;99108.00;;;6.20
68743;BMP180;55725;42.758;26.702;2023-04-24T04:14:07;99109.00;;;6.00
68743;BMP180;55725;42.758;26.702;2023-04-24T04:15:48;99109.00;;;6.10
68743;BMP180;55725;42.758;26.702;2023-04-24T04:17:28;99108.00;;;6.10
68743;BMP180;55725;42.758;26.702;2023-04-24T04:19:08;99098.00;;;5.90
68743;BMP180;55725;42.758;26.702;2023-04-24T04:20:49;99116.00;;;5.50
68743;BMP180;55725;42.758;26.702;2023-04-24T04:22:29;99112.00;;;5.90
68743;BMP180;55725;42.758;26.702;2023-04-24T04:24:10;99117.00;;;6.00
68743;BMP180;55725;42.758;26.702;2023-04-24T04:25:50;99117.00;;;6.20
68743;BMP180;55725;42.758;26.702;2023-04-24T04:27:31;99118.00;;;5.40
68743;BMP180;55725;42.758;26.702;2023-04-24T04:29:12;99111.00;;;6.00
68743;BMP180;55725;42.758;26.702;2023-04-24T04:30:53;99113.00;;;6.20
68743;BMP180;55725;42.758;26.702;2023-04-24T04:32:37;99104.00;;;5.90
68743;BMP180;55725;42.758;26.702;2023-04-24T04:34:18;99110.00;;;5.70
68743;BMP180;55725;42.758;26.702;2023-04-24T04:35:59;99100.00;;;6.40
68743;BMP180;55725;42.758;26.702;2023-04-24T04:37:40;99113.00;;;6.10
68743;BMP180;55725;42.758;26.702;2023-04-24T04:39:20;99109.00;;;6.80
68743;BMP180;55725;42.758;26.702;2023-04-24T04:41:01;99108.00;;;6.30
68743;BMP180;55725;42.758;26.702;2023-04-24T04:42:42;99098.00;;;7.20
68743;BMP180;55725;42.758;26.702;2023-04-24T04:44:23;99103.00;;;6.80
68743;BMP180;55725;42.758;26.702;2023-04-24T04:46:03;99101.00;;;6.20
68743;BMP180;55725;42.758;26.702;2023-04-24T04:47:44;99103.00;;;6.90
68743;BMP180;55725;42.758;26.702;2023-04-24T04:49:24;99097.00;;;6.30
68743;BMP180;55725;42.758;26.702;2023-04-24T04:51:04;99100.00;;;6.70
68743;BMP180;55725;42.758;26.702;2023-04-24T04:52:45;99100.00;;;6.10
68743;BMP180;55725;42.758;26.702;2023-04-24T04:54:26;99105.00;;;7.10
68743;BMP180;55725;42.758;26.702;2023-04-24T04:56:06;99097.00;;;6.40
68743;BMP180;55725;42.758;26.702;2023-04-24T04:57:46;99099.00;;;6.80
68743;BMP180;55725;42.758;26.702;2023-04-24T04:59:27;99095.00;;;6.80
68743;BMP180;55725;42.758;26.702;2023-04-24T05:01:07;99097.00;;;7.00
68743;BMP180;55725;42.758;26.702;2023-04-24T05:02:48;99103.00;;;7.00
68743;BMP180;55725;42.758;26.702;2023-04-24T05:04:28;99093.00;;;7.10
68743;BMP180;55725;42.758;26.702;2023-04-24T05:06:08;99095.00;;;7.80
68743;BMP180;55725;42.758;26.702;2023-04-24T05:07:48;99094.00;;;7.80
68743;BMP180;55725;42.758;26.702;2023-04-24T05:09:29;99098.00;;;8.10
68743;BMP180;55725;42.758;26.702;2023-04-24T05:11:09;99093.00;;;8.00
68743;BMP180;55725;42.758;26.702;2023-04-24T05:12:49;99098.00;;;8.10
68743;BMP180;55725;42.758;26.702;2023-04-24T05:14:30;99099.00;;;8.50
68743;BMP180;55725;42.758;26.702;2023-04-24T05:16:10;99092.00;;;8.70
68743;BMP180;55725;42.758;26.702;2023-04-24T05:17:50;99095.00;;;8.10
68743;BMP180;55725;42.758;26.702;2023-04-24T05:19:31;99091.00;;;8.90
68743;BMP180;55725;42.758;26.702;2023-04-24T05:21:15;99104.00;;;9.20
68743;BMP180;55725;42.758;26.702;2023-04-24T05:22:56;99082.00;;;9.50
68743;BMP180;55725;42.758;26.702;2023-04-24T05:24:36;99078.00;;;9.30
68743;BMP180;55725;42.758;26.702;2023-04-24T05:26:17;99082.00;;;9.60
68743;BMP180;55725;42.758;26.702;2023-04-24T05:27:57;99082.00;;;9.50
68743;BMP180;55725;42.758;26.702;2023-04-24T05:29:38;99075.00;;;9.50
68743;BMP180;55725;42.758;26.702;2023-04-24T05:31:18;99067.00;;;9.20
68743;BMP180;55725;42.758;26.702;2023-04-24T05:32:58;99073.00;;;9.80
68743;BMP180;55725;42.758;26.702;2023-04-24T05:34:38;99077.00;;;9.90
68743;BMP180;55725;42.758;26.702;2023-04-24T05:36:19;99072.00;;;9.50
68743;BMP180;55725;42.758;26.702;2023-04-24T05:37:59;99071.00;;;9.70
68743;BMP180;55725;42.758;26.702;2023-04-24T05:39:39;99073.00;;;10.20
68743;BMP180;55725;42.758;26.702;2023-04-24T05:41:21;99071.00;;;10.50
68743;BMP180;55725;42.758;26.702;2023-04-24T05:43:02;99067.00;;;10.60
68743;BMP180;55725;42.758;26.702;2023-04-24T05:44:42;99074.00;;;11.00
68743;BMP180;55725;42.758;26.702;2023-04-24T05:46:23;99075.00;;;11.30
68743;BMP180;55725;42.758;26.702;2023-04-24T05:48:03;99074.00;;;10.70
68743;BMP180;55725;42.758;26.702;2023-04-24T05:49:44;99072.00;;;10.90
68743;BMP180;55725;42.758;26.702;2023-04-24T05:51:24;99069.00;;;11.10
68743;BMP180;55725;42.758;26.702;2023-04-24T05:53:05;99076.00;;;11.30
68743;BMP180;55725;42.758;26.702;2023-04-24T05:54:47;99077.00;;;11.10
68743;BMP180;55725;42.758;26.702;2023-04-24T05:56:27;99067.00;;;11.30
68743;BMP180;55725;42.758;26.702;2023-04-24T05:58:07;99066.00;;;11.60
68743;BMP180;55725;42.758;26.702;2023-04-24T05:59:48;99069.00;;;11.60
68743;BMP180;55725;42.758;26.702;2023-04-24T06:01:28;99076.00;;;11.40
68743;BMP180;55725;42.758;26.702;2023-04-24T06:03:09;99068.00;;;11.60
68743;BMP180;55725;42.758;26.702;2023-04-24T06:04:49;99066.00;;;11.50
68743;BMP180;55725;42.758;26.702;2023-04-24T06:06:30;99067.00;;;11.50
68743;BMP180;55725;42.758;26.702;2023-04-24T06:08:12;99062.00;;;11.60
68743;BMP180;55725;42.758;26.702;2023-04-24T06:09:52;99075.00;;;11.40
68743;BMP180;55725;42.758;26.702;2023-04-24T06:11:33;99072.00;;;11.60
68743;BMP180;55725;42.758;26.702;2023-04-24T06:13:13;99081.00;;;11.80
68743;BMP180;55725;42.758;26.702;2023-04-24T06:14:53;99067.00;;;11.70
68743;BMP180;55725;42.758;26.702;2023-04-24T06:16:35;99070.00;;;11.90
68743;BMP180;55725;42.758;26.702;2023-04-24T06:18:15;99065.00;;;11.80
68743;BMP180;55725;42.758;26.702;2023-04-24T06:19:56;99060.00;;;12.00
68743;BMP180;55725;42.758;26.702;2023-04-24T06:21:36;99071.00;;;12.10
68743;BMP180;55725;42.758;26.702;2023-04-24T06:23:16;99073.00;;;12.10
68743;BMP180;55725;42.758;26.702;2023-04-24T06:24:57;99063.00;;;12.30
68743;BMP180;55725;42.758;26.702;2023-04-24T06:26:37;99066.00;;;12.40
68743;BMP180;55725;42.758;26.702;2023-04-24T06:28:17;99070.00;;;12.60
68743;BMP180;55725;42.758;26.702;2023-04-24T06:29:57;99079.00;;;12.50
68743;BMP180;55725;42.758;26.702;2023-04-24T06:31:38;99065.00;;;12.40
68743;BMP180;55725;42.758;26.702;2023-04-24T06:33:18;99062.00;;;12.30
68743;BMP180;55725;42.758;26.702;2023-04-24T06:34:59;99063.00;;;12.50
68743;BMP180;55725;42.758;26.702;2023-04-24T06:36:39;99056.00;;;12.80
68743;BMP180;55725;42.758;26.702;2023-04-24T06:38:19;99057.00;;;12.80
68743;BMP180;55725;42.758;26.702;2023-04-24T06:40:00;99061.00;;;13.30
68743;BMP180;55725;42.758;26.702;2023-04-24T06:41:40;99062.00;;;13.40
68743;BMP180;55725;42.758;26.702;2023-04-24T06:43:20;99050.00;;;13.60
68743;BMP180;55725;42.758;26.702;2023-04-24T06:45:01;99057.00;;;13.90
68743;BMP180;55725;42.758;26.702;2023-04-24T06:46:42;99053.00;;;13.80
68743;BMP180;55725;42.758;26.702;2023-04-24T06:48:22;99060.00;;;13.70
68743;BMP180;55725;42.758;26.702;2023-04-24T06:50:02;99058.00;;;13.70
68743;BMP180;55725;42.758;26.702;2023-04-24T06:51:43;99054.00;;;13.50
68743;BMP180;55725;42.758;26.702;2023-04-24T06:53:23;99043.00;;;13.70
68743;BMP180;55725;42.758;26.702;2023-04-24T06:55:03;99040.00;;;13.60
68743;BMP180;55725;42.758;26.702;2023-04-24T06:56:44;99040.00;;;13.80
68743;BMP180;55725;42.758;26.702;2023-04-24T06:58:27;99038.00;;;13.80
68743;BMP180;55725;42.758;26.702;2023-04-24T07:00:07;99047.00;;;14.30
68743;BMP180;55725;42.758;26.702;2023-04-24T07:01:49;99042.00;;;14.10
68743;BMP180;55725;42.758;26.702;2023-04-24T07:03:31;99038.00;;;14.30
68743;BMP180;55725;42.758;26.702;2023-04-24T07:05:11;99032.00;;;14.20
68743;BMP180;55725;42.758;26.702;2023-04-24T07:06:52;99043.00;;;14.60
68743;BMP180;55725;42.758;26.702;2023-04-24T07:08:35;99040.00;;;14.20
68743;BMP180;55725;42.758;26.702;2023-04-24T07:10:16;99039.00;;;13.90
68743;BMP180;55725;42.758;26.702;2023-04-24T07:11:57;99049.00;;;14.60
68743;BMP180;55725;42.758;26.702;2023-04-24T07:13:37;99040.00;;;14.10
68743;BMP180;55725;42.758;26.702;2023-04-24T07:15:21;99043.00;;;14.30
68743;BMP180;55725;42.758;26.702;2023-04-24T07:17:02;99039.00;;;14.30
68743;BMP180;55725;42.758;26.702;2023-04-24T07:18:43;99042.00;;;14.30
68743;BMP180;55725;42.758;26.702;2023-04-24T07:20:23;99035.00;;;14.20
68743;BMP180;55725;42.758;26.702;2023-04-24T07:22:04;99051.00;;;14.70
68743;BMP180;55725;42.758;26.702;2023-04-24T07:23:44;99048.00;;;14.30
68743;BMP180;55725;42.758;26.702;2023-04-24T07:25:24;99047.00;;;14.30
68743;BMP180;55725;42.758;26.702;2023-04-24T07:27:05;99038.00;;;14.80
68743;BMP180;55725;42.758;26.702;2023-04-24T07:28:45;99037.00;;;14.80
68743;BMP180;55725;42.758;26.702;2023-04-24T07:30:25;99037.00;;;14.40
68743;BMP180;55725;42.758;26.702;2023-04-24T07:32:06;99047.00;;;14.90
68743;BMP180;55725;42.758;26.702;2023-04-24T07:33:46;99039.00;;;14.90
68743;BMP180;55725;42.758;26.702;2023-04-24T07:35:26;99042.00;;;15.30
68743;BMP180;55725;42.758;26.702;2023-04-24T07:37:07;99037.00;;;14.80
68743;BMP180;55725;42.758;26.702;2023-04-24T07:38:47;99039.00;;;14.90
68743;BMP180;55725;42.758;26.702;2023-04-24T07:40:28;99023.00;;;14.90
68743;BMP180;55725;42.758;26.702;2023-04-24T07:42:08;99048.00;;;15.30
68743;BMP180;55725;42.758;26.702;2023-04-24T07:43:49;99030.00;;;15.10
68743;BMP180;55725;42.758;26.702;2023-04-24T07:45:29;99031.00;;;14.80
68743;BMP180;55725;42.758;26.702;2023-04-24T07:47:11;99038.00;;;14.90
68743;BMP180;55725;42.758;26.702;2023-04-24T07:48:51;99030.00;;;15.00
68743;BMP180;55725;42.758;26.702;2023-04-24T07:50:31;99024.00;;;15.30
68743;BMP180;55725;42.758;26.702;2023-04-24T07:52:12;99029.00;;;15.50
68743;BMP180;55725;42.758;26.702;2023-04-24T07:53:52;99028.00;;;15.50
68743;BMP180;55725;42.758;26.702;2023-04-24T07:55:33;99030.00;;;15.90
68743;BMP180;55725;42.758;26.702;2023-04-24T07:57:13;99032.00;;;15.20
68743;BMP180;55725;42.758;26.702;2023-04-24T07:58:54;99026.00;;;15.70
68743;BMP180;55725;42.758;26.702;2023-04-24T08:00:34;99030.00;;;15.60
68743;BMP180;55725;42.758;26.702;2023-04-24T08:02:14;99032.00;;;16.50
68743;BMP180;55725;42.758;26.702;2023-04-24T08:03:55;99026.00;;;15.70
68743;BMP180;55725;42.758;26.702;2023-04-24T08:05:35;99024.00;;;16.00
68743;BMP180;55725;42.758;26.702;2023-04-24T08:07:16;99012.00;;;16.00
68743;BMP180;55725;42.758;26.702;2023-04-24T08:08:57;99026.00;;;16.30
68743;BMP180;55725;42.758;26.702;2023-04-24T08:10:37;99026.00;;;16.40
68743;BMP180;55725;42.758;26.702;2023-04-24T08:12:18;99020.00;;;15.60
68743;BMP180;55725;42.758;26.702;2023-04-24T08:13:58;99009.00;;;15.80
68743;BMP180;55725;42.758;26.702;2023-04-24T08:15:38;99018.00;;;15.50
68743;BMP180;55725;42.758;26.702;2023-04-24T08:17:19;99020.00;;;16.60
68743;BMP180;55725;42.758;26.702;2023-04-24T08:18:59;99022.00;;;16.70
68743;BMP180;55725;42.758;26.702;2023-04-24T08:20:39;99018.00;;;16.90
68743;BMP180;55725;42.758;26.702;2023-04-24T08:22:20;99029.00;;;16.30
68743;BMP180;55725;42.758;26.702;2023-04-24T08:24:00;99008.00;;;16.00
68743;BMP180;55725;42.758;26.702;2023-04-24T08:25:45;99016.00;;;16.30
68743;BMP180;55725;42.758;26.702;2023-04-24T08:27:25;99006.00;;;15.80
68743;BMP180;55725;42.758;26.702;2023-04-24T08:29:06;99020.00;;;16.60
68743;BMP180;55725;42.758;26.702;2023-04-24T08:30:46;99014.00;;;16.70
68743;BMP180;55725;42.758;26.702;2023-04-24T08:32:27;99013.00;;;17.10
68743;BMP180;55725;42.758;26.702;2023-04-24T08:34:09;99007.00;;;16.80
68743;BMP180;55725;42.758;26.702;2023-04-24T08:35:49;99013.00;;;17.60
68743;BMP180;55725;42.758;26.702;2023-04-24T08:37:30;98999.00;;;17.50
68743;BMP180;55725;42.758;26.702;2023-04-24T08:39:10;99009.00;;;17.50
68743;BMP180;55725;42.758;26.702;2023-04-24T08:40:51;98999.00;;;17.70
68743;BMP180;55725;42.758;26.702;2023-04-24T08:42:31;99002.00;;;17.80
68743;BMP180;55725;42.758;26.702;2023-04-24T08:44:13;98999.00;;;17.30
68743;BMP180;55725;42.758;26.702;2023-04-24T08:45:56;99004.00;;;17.10
68743;BMP180;55725;42.758;26.702;2023-04-24T08:47:40;99002.00;;;16.70
68743;BMP180;55725;42.758;26.702;2023-04-24T08:49:20;98999.00;;;17.30
68743;BMP180;55725;42.758;26.702;2023-04-24T08:51:01;98995.00;;;17.00
68743;BMP180;55725;42.758;26.702;2023-04-24T08:52:42;99001.00;;;17.50
68743;BMP180;55725;42.758;26.702;2023-04-24T08:54:23;98981.00;;;17.30
68743;BMP180;55725;42.758;26.702;2023-04-24T08:56:03;99003.00;;;17.20
68743;BMP180;55725;42.758;26.702;2023-04-24T08:57:44;98991.00;;;17.10
68743;BMP180;55725;42.758;26.702;2023-04-24T08:59:25;98984.00;;;17.30
68743;BMP180;55725;42.758;26.702;2023-04-24T09:01:05;98983.00;;;17.60
68743;BMP180;55725;42.758;26.702;2023-04-24T09:02:52;98985.00;;;17.40
68743;BMP180;55725;42.758;26.702;2023-04-24T09:04:32;98985.00;;;17.20
68743;BMP180;55725;42.758;26.702;2023-04-24T09:06:13;98990.00;;;17.10
68743;BMP180;55725;42.758;26.702;2023-04-24T09:07:55;98986.00;;;17.90
68743;BMP180;55725;42.758;26.702;2023-04-24T09:09:36;98977.00;;;16.90
68743;BMP180;55725;42.758;26.702;2023-04-24T09:11:18;98971.00;;;18.20
68743;BMP180;55725;42.758;26.702;2023-04-24T09:12:59;99000.00;;;18.30
68743;BMP180;55725;42.758;26.702;2023-04-24T09:14:41;99016.00;;;17.60
68743;BMP180;55725;42.758;26.702;2023-04-24T09:16:25;98981.00;;;17.20
68743;BMP180;55725;42.758;26.702;2023-04-24T09:18:06;99021.00;;;18.20
68743;BMP180;55725;42.758;26.702;2023-04-24T09:19:46;98976.00;;;17.10
68743;BMP180;55725;42.758;26.702;2023-04-24T09:21:30;98972.00;;;17.80
68743;BMP180;55725;42.758;26.702;2023-04-24T09:23:11;98972.00;;;18.00
68743;BMP180;55725;42.758;26.702;2023-04-24T09:25:03;98967.00;;;17.90
68743;BMP180;55725;42.758;26.702;2023-04-24T09:26:45;98959.00;;;18.40
68743;BMP180;55725;42.758;26.702;2023-04-24T09:28:30;98959.00;;;18.80
68743;BMP180;55725;42.758;26.702;2023-04-24T09:30:10;98969.00;;;18.30
68743;BMP180;55725;42.758;26.702;2023-04-24T09:31:51;98959.00;;;18.90
68743;BMP180;55725;42.758;26.702;2023-04-24T09:33:31;98965.00;;;18.30
68743;BMP180;55725;42.758;26.702;2023-04-24T09:35:12;98961.00;;;18.00
68743;BMP180;55725;42.758;26.702;2023-04-24T09:36:53;98961.00;;;18.20